createdAt,value
2019-02-24T00:00:42.137Z,28.23
2019-02-24T00:05:47.979Z,31.65
2019-02-24T00:10:53.867Z,31.05
2019-02-24T00:15:59.704Z,26.90
2019-02-24T00:21:05.560Z,28.47
2019-02-24T00:26:11.422Z,27.37
2019-02-24T00:31:17.277Z,26.02
2019-02-24T00:36:23.161Z,25.70
2019-02-24T00:41:29.006Z,30.15
2019-02-24T00:46:35.166Z,36.40
2019-02-24T00:51:41.279Z,31.73
2019-02-24T00:56:47.352Z,31.60
2019-02-24T01:01:53.522Z,283.07
2019-02-24T01:06:59.779Z,188.05
2019-02-24T01:12:05.858Z,100.12
2019-02-24T01:17:12.051Z,129.90
2019-02-24T01:22:18.329Z,113.65
2019-02-24T01:27:24.526Z,41.90
2019-02-24T01:32:30.564Z,36.15
2019-02-24T01:37:36.447Z,36.98
2019-02-24T01:42:42.300Z,34.08
2019-02-24T01:47:48.257Z,34.92
2019-02-24T01:52:54.103Z,35.58
2019-02-24T01:57:59.955Z,37.15
2019-02-24T02:03:06.014Z,33.78
2019-02-24T02:08:11.937Z,32.78
2019-02-24T02:13:18.006Z,30.37
2019-02-24T02:18:23.923Z,30.77
2019-02-24T02:23:29.800Z,30.32
2019-02-24T02:28:43.610Z,27.45
2019-02-24T02:33:43.333Z,26.85
2019-02-24T02:38:49.179Z,24.90
2019-02-24T02:43:55.025Z,26.07
2019-02-24T02:49:01.247Z,23.95
2019-02-24T02:54:07.256Z,23.35
2019-02-24T02:59:13.100Z,24.72
2019-02-24T03:04:19.026Z,56.08
2019-02-24T03:09:24.925Z,30.90
2019-02-24T03:14:30.782Z,26.75
2019-02-24T03:19:36.690Z,27.07
2019-02-24T03:24:42.547Z,29.30
2019-02-24T03:29:48.407Z,40.10
2019-02-24T03:34:54.272Z,32.90
2019-02-24T03:40:00.275Z,33.10
2019-02-24T03:45:06.873Z,24.90
2019-02-24T03:50:13.649Z,24.37
2019-02-24T03:55:19.501Z,25.60
2019-02-24T04:00:25.393Z,23.98
2019-02-24T04:05:31.532Z,22.70
2019-02-24T04:10:37.914Z,24.07
2019-02-24T04:15:45.007Z,23.15
2019-02-24T04:20:51.017Z,25.68
2019-02-24T04:25:56.995Z,26.37
2019-02-24T04:31:03.168Z,27.70
2019-02-24T04:36:09.509Z,27.80
2019-02-24T04:41:15.762Z,27.13
2019-02-24T04:46:22.168Z,28.87
2019-02-24T04:51:28.451Z,29.40
2019-02-24T04:56:34.585Z,27.65
2019-02-24T05:01:40.773Z,25.85
2019-02-24T05:06:47.387Z,26.62
2019-02-24T05:11:53.798Z,27.02
2019-02-24T05:17:00.050Z,25.47
2019-02-24T05:22:06.241Z,25.83
2019-02-24T05:27:12.478Z,28.12
2019-02-24T05:32:18.673Z,29.92
2019-02-24T05:37:24.947Z,28.57
2019-02-24T05:42:30.793Z,18.73
2019-02-24T05:47:36.653Z,20.97
2019-02-24T05:52:42.828Z,20.47
2019-02-24T05:57:48.891Z,20.63
2019-02-24T06:02:55.187Z,18.37
2019-02-24T06:08:01.387Z,18.37
2019-02-24T06:13:07.574Z,24.90
2019-02-24T06:18:13.708Z,18.80
2019-02-24T06:23:19.579Z,19.27
2019-02-24T06:28:25.455Z,17.17
2019-02-24T06:33:31.312Z,18.33
2019-02-24T06:38:37.223Z,18.63
2019-02-24T06:43:43.074Z,18.90
2019-02-24T06:48:48.929Z,18.67
2019-02-24T06:53:54.848Z,17.37
2019-02-24T06:59:00.747Z,18.07
2019-02-24T07:04:06.689Z,17.30
2019-02-24T07:09:12.563Z,17.67
2019-02-24T07:14:18.436Z,19.97
2019-02-24T07:19:24.297Z,25.70
2019-02-24T07:24:30.148Z,28.07
2019-02-24T07:29:36.019Z,29.13
2019-02-24T07:34:41.872Z,26.87
2019-02-24T07:39:47.782Z,25.87
2019-02-24T07:44:53.633Z,24.87
2019-02-24T07:49:59.479Z,26.87
2019-02-24T07:55:05.458Z,26.83
2019-02-24T08:00:11.381Z,28.60
2019-02-24T08:05:17.222Z,35.93
2019-02-24T08:10:23.074Z,42.43
2019-02-24T08:15:28.933Z,38.40
2019-02-24T08:20:34.776Z,37.83
2019-02-24T08:25:40.638Z,36.17
2019-02-24T08:30:46.516Z,36.05
2019-02-24T08:35:52.476Z,44.63
2019-02-24T08:40:58.335Z,44.77
2019-02-24T08:46:04.185Z,42.55
2019-02-24T08:51:11.518Z,51.45
2019-02-24T08:56:17.448Z,44.93
2019-02-24T09:01:23.314Z,38.50
2019-02-24T09:06:29.173Z,29.65
2019-02-24T09:11:35.033Z,28.73
2019-02-24T09:16:40.932Z,26.87
2019-02-24T09:21:46.802Z,26.62
2019-02-24T09:26:52.657Z,29.25
2019-02-24T09:31:58.575Z,27.87
2019-02-24T09:37:04.557Z,26.50
2019-02-24T09:42:10.486Z,26.33
2019-02-24T09:47:16.333Z,26.60
2019-02-24T09:52:22.184Z,25.45
2019-02-24T09:57:28.049Z,25.25
2019-02-24T10:02:33.949Z,25.77
2019-02-24T10:07:39.825Z,25.05
2019-02-24T10:12:45.745Z,26.42
2019-02-24T10:17:51.557Z,25.88
2019-02-24T10:22:57.484Z,26.25
2019-02-24T10:28:03.345Z,26.05
2019-02-24T10:33:09.209Z,26.17
2019-02-24T10:38:15.077Z,25.12
2019-02-24T10:43:21.111Z,24.25
2019-02-24T10:48:26.963Z,24.55
2019-02-24T10:53:32.832Z,24.35
2019-02-24T10:58:38.690Z,23.05
2019-02-24T11:03:44.559Z,22.98
2019-02-24T11:08:50.449Z,22.93
2019-02-24T11:13:56.274Z,22.90
2019-02-24T11:19:02.201Z,22.22
2019-02-24T11:24:08.074Z,21.73
2019-02-24T11:29:13.939Z,21.90
2019-02-24T11:34:19.847Z,19.42
2019-02-24T11:39:25.706Z,20.12
2019-02-24T11:44:31.591Z,19.75
2019-02-24T11:49:37.442Z,19.92
2019-02-24T11:54:43.307Z,19.42
2019-02-24T11:59:49.162Z,20.23
2019-02-24T12:04:55.012Z,18.98
2019-02-24T12:10:00.986Z,17.98
2019-02-24T12:15:08.010Z,15.85
2019-02-24T12:20:13.981Z,16.93
2019-02-24T12:25:19.857Z,17.30
2019-02-24T12:30:28.163Z,17.02
2019-02-24T12:35:34.098Z,19.42
2019-02-24T12:40:39.998Z,15.98
2019-02-24T12:45:45.855Z,14.95
2019-02-24T12:50:51.710Z,14.87
2019-02-24T12:55:57.567Z,14.35
2019-02-24T13:01:03.602Z,15.13
2019-02-24T13:06:09.473Z,14.53
2019-02-24T13:11:15.329Z,16.62
2019-02-24T13:16:21.193Z,13.58
2019-02-24T13:21:27.042Z,12.95
2019-02-24T13:26:32.928Z,12.28
2019-02-24T13:31:38.776Z,13.72
2019-02-24T13:36:44.642Z,12.88
2019-02-24T13:41:50.501Z,15.58
2019-02-24T13:46:56.355Z,12.75
2019-02-24T13:52:02.194Z,14.13
2019-02-24T13:57:08.130Z,10.98
2019-02-24T14:02:14.114Z,11.78
2019-02-24T14:07:19.967Z,11.43
2019-02-24T14:12:25.975Z,12.55
2019-02-24T14:17:31.889Z,12.33
2019-02-24T14:22:37.738Z,11.55
2019-02-24T14:27:43.762Z,11.63
2019-02-24T14:32:49.962Z,11.33
2019-02-24T14:37:55.833Z,12.15
2019-02-24T14:43:01.778Z,15.30
2019-02-24T14:48:07.657Z,14.58
2019-02-24T14:53:13.514Z,13.10
2019-02-24T14:58:19.480Z,14.28
2019-02-24T15:03:25.352Z,14.05
2019-02-24T15:08:31.294Z,12.85
2019-02-24T15:13:37.192Z,13.32
2019-02-24T15:18:43.082Z,13.60
2019-02-24T15:23:48.940Z,13.48
2019-02-24T15:28:54.797Z,12.43
2019-02-24T15:34:00.681Z,13.55
2019-02-24T15:39:07.409Z,14.28
2019-02-24T15:44:13.268Z,13.65
2019-02-24T15:49:19.202Z,11.90
2019-02-24T15:54:25.093Z,12.20
2019-02-24T15:59:31.023Z,13.32
2019-02-24T16:04:36.891Z,14.07
2019-02-24T16:09:42.801Z,12.85
2019-02-24T16:14:48.662Z,12.68
2019-02-24T16:19:54.593Z,13.08
2019-02-24T16:25:00.456Z,12.95
2019-02-24T16:30:06.664Z,11.68
2019-02-24T16:35:13.419Z,11.90
2019-02-24T16:40:19.718Z,13.65
2019-02-24T16:45:25.672Z,12.30
2019-02-24T16:50:31.726Z,13.03
2019-02-24T16:55:37.663Z,13.15
2019-02-24T17:00:43.530Z,12.03
2019-02-24T17:05:49.412Z,12.03
2019-02-24T17:10:55.590Z,12.33
2019-02-24T17:16:01.464Z,12.63
2019-02-24T17:21:07.341Z,12.30
2019-02-24T17:26:13.199Z,12.23
2019-02-24T17:31:27.907Z,11.90
2019-02-24T17:36:26.660Z,11.10
2019-02-24T17:41:32.540Z,11.20
2019-02-24T17:46:38.622Z,12.10
2019-02-24T17:51:44.501Z,13.25
2019-02-24T17:56:50.360Z,12.53
2019-02-24T18:01:56.256Z,13.65
2019-02-24T18:07:02.106Z,13.25
2019-02-24T18:12:07.998Z,17.17
2019-02-24T18:17:13.844Z,19.57
2019-02-24T18:22:19.716Z,21.85
2019-02-24T18:27:25.647Z,13.43
2019-02-24T18:32:32.213Z,12.98
2019-02-24T18:37:38.153Z,12.58
2019-02-24T18:42:44.117Z,13.30
2019-02-24T18:47:50.001Z,20.30
2019-02-24T18:52:55.841Z,18.65
2019-02-24T18:58:01.716Z,18.32
2019-02-24T19:03:07.575Z,24.00
2019-02-24T19:08:15.282Z,52.38
2019-02-24T19:13:21.310Z,41.08
2019-02-24T19:18:27.429Z,63.55
2019-02-24T19:23:33.308Z,36.15
2019-02-24T19:28:39.452Z,36.17
2019-02-24T19:33:45.496Z,31.37
2019-02-24T19:38:51.382Z,28.17
2019-02-24T19:43:57.246Z,33.65
2019-02-24T19:49:03.101Z,38.25
2019-02-24T19:54:08.944Z,37.17
2019-02-24T19:59:14.972Z,33.23
2019-02-24T20:04:20.838Z,33.83
2019-02-24T20:09:26.750Z,28.20
2019-02-24T20:14:32.642Z,40.50
2019-02-24T20:19:38.526Z,48.38
2019-02-24T20:24:44.477Z,48.17
2019-02-24T20:29:50.355Z,61.88
2019-02-24T20:34:56.219Z,51.53
2019-02-24T20:40:02.120Z,41.30
2019-02-24T20:45:08.995Z,40.12
2019-02-24T20:50:16.727Z,38.98
2019-02-24T20:55:22.684Z,43.52
2019-02-24T21:00:31.528Z,34.18
2019-02-24T21:05:37.409Z,58.38
2019-02-24T21:10:43.355Z,34.27
2019-02-24T21:15:49.237Z,25.97
2019-02-24T21:20:55.152Z,22.73
2019-02-24T21:26:01.010Z,22.62
2019-02-24T21:31:06.869Z,23.95
2019-02-24T21:36:16.699Z,24.85
2019-02-24T21:41:22.784Z,30.43
2019-02-24T21:46:28.673Z,38.65
2019-02-24T21:51:34.532Z,40.45
2019-02-24T21:56:40.508Z,74.03
2019-02-24T22:01:46.388Z,59.05
2019-02-24T22:06:52.241Z,63.68
2019-02-24T22:11:58.099Z,32.60
2019-02-24T22:17:04.021Z,33.85
2019-02-24T22:22:10.040Z,33.20
2019-02-24T22:27:15.887Z,31.12
2019-02-24T22:32:21.755Z,30.97
2019-02-24T22:37:27.633Z,34.18
2019-02-24T22:42:33.912Z,45.10
2019-02-24T22:47:39.750Z,37.67
2019-02-24T22:52:46.061Z,36.05
2019-02-24T22:57:51.951Z,31.70
2019-02-24T23:02:57.830Z,28.02
2019-02-24T23:08:03.797Z,26.48
2019-02-24T23:13:09.638Z,29.40
2019-02-24T23:18:15.642Z,24.57
2019-02-24T23:23:21.554Z,27.40
2019-02-24T23:28:27.449Z,28.35
2019-02-24T23:33:33.302Z,25.30
2019-02-24T23:38:39.170Z,20.70
2019-02-24T23:43:45.071Z,18.10
2019-02-24T23:48:50.927Z,18.50
2019-02-24T23:53:56.845Z,18.07
2019-02-24T23:59:02.710Z,16.90
